createdAt,value
2018-08-16T00:01:29.422Z,99.90
2018-08-16T00:03:57.742Z,99.90
2018-08-16T00:06:26.153Z,99.90
2018-08-16T00:08:54.677Z,99.90
2018-08-16T00:11:22.994Z,99.90
2018-08-16T00:13:51.326Z,99.90
2018-08-16T00:16:19.666Z,99.90
2018-08-16T00:18:48.020Z,99.90
2018-08-16T00:21:16.370Z,99.90
2018-08-16T00:23:44.695Z,99.90
2018-08-16T00:26:13.017Z,99.90
2018-08-16T00:28:41.325Z,99.90
2018-08-16T00:31:09.662Z,99.90
2018-08-16T00:33:38.006Z,99.90
2018-08-16T00:36:06.322Z,99.90
2018-08-16T00:38:34.690Z,99.90
2018-08-16T00:41:03.045Z,99.90
2018-08-16T00:43:31.370Z,99.90
2018-08-16T00:45:59.722Z,99.90
2018-08-16T00:48:28.037Z,99.90
2018-08-16T00:50:56.457Z,99.90
2018-08-16T00:53:24.770Z,99.90
2018-08-16T00:55:53.124Z,99.90
2018-08-16T00:58:21.645Z,99.90
2018-08-16T01:00:49.965Z,99.90
2018-08-16T01:03:18.300Z,99.90
2018-08-16T01:05:46.633Z,99.90
2018-08-16T01:08:14.953Z,99.90
2018-08-16T01:10:43.298Z,99.90
2018-08-16T01:13:11.626Z,99.90
2018-08-16T01:15:39.957Z,99.90
2018-08-16T01:18:08.442Z,99.90
2018-08-16T01:20:36.783Z,99.90
2018-08-16T01:23:05.150Z,99.90
2018-08-16T01:25:33.510Z,99.90
2018-08-16T01:28:01.842Z,99.90
2018-08-16T01:30:30.168Z,99.90
2018-08-16T01:32:58.522Z,99.90
2018-08-16T01:35:26.893Z,99.90
2018-08-16T01:37:55.334Z,99.90
2018-08-16T01:40:23.666Z,99.90
2018-08-16T01:42:52.010Z,99.90
2018-08-16T01:45:20.334Z,99.90
2018-08-16T01:47:48.756Z,99.90
2018-08-16T01:50:17.083Z,99.90
2018-08-16T01:52:45.589Z,99.90
2018-08-16T01:55:13.907Z,99.90
2018-08-16T01:57:42.226Z,99.90
2018-08-16T02:00:10.762Z,99.90
2018-08-16T02:02:39.465Z,99.90
2018-08-16T02:05:08.188Z,99.90
2018-08-16T02:07:36.738Z,99.90
2018-08-16T02:10:06.369Z,99.90
2018-08-16T02:12:34.748Z,99.90
2018-08-16T02:15:03.126Z,99.90
2018-08-16T02:17:31.580Z,99.90
2018-08-16T02:19:59.890Z,99.90
2018-08-16T02:22:28.230Z,99.90
2018-08-16T02:24:56.537Z,99.90
2018-08-16T02:27:24.878Z,99.90
2018-08-16T02:29:53.257Z,99.90
2018-08-16T02:32:21.627Z,99.90
2018-08-16T02:34:49.967Z,99.90
2018-08-16T02:37:18.305Z,99.90
2018-08-16T02:39:46.623Z,99.90
2018-08-16T02:42:15.103Z,99.90
2018-08-16T02:44:43.427Z,99.90
2018-08-16T02:47:11.866Z,99.90
2018-08-16T02:49:40.181Z,99.90
2018-08-16T02:52:08.553Z,99.90
2018-08-16T02:54:36.881Z,99.90
2018-08-16T02:57:05.301Z,99.90
2018-08-16T02:59:33.639Z,99.90
2018-08-16T03:02:01.958Z,99.90
2018-08-16T03:04:30.266Z,99.90
2018-08-16T03:06:58.607Z,99.90
2018-08-16T03:09:26.934Z,99.90
2018-08-16T03:11:55.288Z,99.90
2018-08-16T03:14:23.620Z,99.90
2018-08-16T03:16:52.004Z,99.90
2018-08-16T03:19:20.596Z,99.90
2018-08-16T03:21:48.943Z,99.90
2018-08-16T03:24:17.459Z,99.90
2018-08-16T03:26:46.063Z,99.90
2018-08-16T03:29:14.629Z,99.90
2018-08-16T03:31:43.119Z,99.90
2018-08-16T03:34:11.450Z,99.90
2018-08-16T03:36:39.816Z,99.90
2018-08-16T03:39:09.177Z,99.90
2018-08-16T03:41:37.657Z,99.90
2018-08-16T03:44:06.634Z,99.90
2018-08-16T03:46:35.058Z,99.90
2018-08-16T03:49:03.398Z,99.90
2018-08-16T03:51:31.762Z,99.90
2018-08-16T03:54:00.119Z,99.90
2018-08-16T03:56:28.507Z,99.90
2018-08-16T03:58:56.823Z,99.90
2018-08-16T04:01:25.181Z,99.90
2018-08-16T04:03:53.680Z,99.90
2018-08-16T04:06:22.058Z,99.90
2018-08-16T04:08:50.381Z,99.90
2018-08-16T04:11:18.716Z,99.90
2018-08-16T04:13:47.036Z,99.90
2018-08-16T04:16:15.357Z,99.90
2018-08-16T04:18:43.685Z,99.90
2018-08-16T04:21:11.997Z,99.90
2018-08-16T04:23:40.336Z,99.90
2018-08-16T04:26:08.685Z,99.90
2018-08-16T04:28:36.994Z,99.90
2018-08-16T04:31:05.316Z,99.90
2018-08-16T04:33:33.617Z,99.90
2018-08-16T04:36:01.955Z,99.90
2018-08-16T04:38:30.301Z,99.90
2018-08-16T04:40:58.641Z,99.90
2018-08-16T04:43:26.989Z,99.90
2018-08-16T04:45:55.353Z,99.90
2018-08-16T04:48:23.660Z,99.90
2018-08-16T04:50:52.001Z,99.90
2018-08-16T04:53:20.406Z,99.90
2018-08-16T04:55:48.713Z,99.90
2018-08-16T04:58:17.060Z,99.90
2018-08-16T05:00:45.394Z,99.90
2018-08-16T05:03:13.754Z,99.90
2018-08-16T05:05:42.085Z,99.90
2018-08-16T05:08:10.453Z,99.90
2018-08-16T05:10:38.854Z,99.90
2018-08-16T05:13:07.217Z,99.90
2018-08-16T05:15:35.606Z,99.90
2018-08-16T05:18:04.071Z,99.90
2018-08-16T05:20:32.454Z,99.90
2018-08-16T05:23:00.842Z,99.90
2018-08-16T05:25:35.874Z,99.90
2018-08-16T05:28:04.254Z,99.90
2018-08-16T05:30:32.580Z,99.90
2018-08-16T05:33:00.927Z,99.90
2018-08-16T05:35:29.262Z,99.90
2018-08-16T05:37:57.662Z,99.90
2018-08-16T05:40:26.056Z,99.90
2018-08-16T05:42:54.462Z,99.90
2018-08-16T05:45:22.778Z,99.90
2018-08-16T05:47:51.268Z,99.90
2018-08-16T05:50:19.635Z,99.90
2018-08-16T05:52:47.997Z,99.90
2018-08-16T05:55:16.406Z,99.90
2018-08-16T05:57:44.782Z,99.90
2018-08-16T06:00:14.605Z,99.90
2018-08-16T06:02:42.979Z,99.90
2018-08-16T06:05:12.294Z,99.90
2018-08-16T06:07:41.328Z,99.90
2018-08-16T06:10:10.580Z,99.90
2018-08-16T06:12:39.090Z,99.90
2018-08-16T06:15:08.661Z,99.90
2018-08-16T06:17:37.060Z,99.90
2018-08-16T06:20:07.622Z,99.90
2018-08-16T06:22:35.984Z,99.90
2018-08-16T06:25:05.106Z,99.90
2018-08-16T06:27:33.425Z,99.90
2018-08-16T06:30:01.764Z,99.90
2018-08-16T06:32:30.775Z,99.90
2018-08-16T06:34:59.965Z,99.90
2018-08-16T06:37:28.321Z,99.90
2018-08-16T06:39:56.625Z,99.90
2018-08-16T06:42:24.969Z,99.90
2018-08-16T06:44:53.280Z,99.90
2018-08-16T06:47:21.737Z,99.90
2018-08-16T06:49:50.082Z,99.90
2018-08-16T06:52:18.395Z,99.90
2018-08-16T06:54:46.717Z,99.90
2018-08-16T06:57:15.079Z,99.90
2018-08-16T06:59:43.397Z,99.90
2018-08-16T07:02:11.709Z,99.90
2018-08-16T07:04:40.032Z,99.90
2018-08-16T07:07:08.565Z,99.90
2018-08-16T07:09:36.897Z,99.90
2018-08-16T07:12:05.340Z,99.90
2018-08-16T07:14:33.708Z,99.90
2018-08-16T07:17:02.118Z,99.90
2018-08-16T07:19:30.513Z,99.90
2018-08-16T07:21:58.818Z,99.90
2018-08-16T07:24:27.237Z,99.90
2018-08-16T07:26:55.564Z,99.90
2018-08-16T07:29:24.083Z,99.90
2018-08-16T07:31:52.435Z,99.90
2018-08-16T07:34:20.882Z,99.90
2018-08-16T07:36:49.280Z,99.90
2018-08-16T07:39:17.698Z,99.90
2018-08-16T07:41:46.088Z,99.90
2018-08-16T07:44:14.426Z,99.90
2018-08-16T07:46:42.810Z,99.90
2018-08-16T07:49:11.161Z,99.90
2018-08-16T07:51:39.771Z,99.90
2018-08-16T07:54:07.934Z,99.90
2018-08-16T07:56:36.309Z,99.90
2018-08-16T07:59:04.719Z,99.90
2018-08-16T08:01:33.226Z,99.90
2018-08-16T08:04:01.574Z,99.90
2018-08-16T08:06:29.937Z,99.90
2018-08-16T08:08:58.375Z,99.90
2018-08-16T08:11:26.677Z,99.90
2018-08-16T08:13:55.023Z,99.90
2018-08-16T08:16:23.327Z,99.90
2018-08-16T08:18:51.645Z,99.90
2018-08-16T08:21:19.989Z,99.90
2018-08-16T08:23:48.330Z,99.90
2018-08-16T08:26:16.653Z,99.90
2018-08-16T08:28:45.022Z,99.90
2018-08-16T08:31:13.366Z,99.90
2018-08-16T08:33:41.691Z,99.90
2018-08-16T08:37:21.373Z,99.90
2018-08-16T08:39:49.712Z,99.90
2018-08-16T08:42:18.045Z,99.90
2018-08-16T08:44:46.420Z,99.90
2018-08-16T08:47:14.735Z,99.90
2018-08-16T08:49:43.134Z,99.90
2018-08-16T08:52:11.441Z,99.90
2018-08-16T08:54:54.497Z,99.90
2018-08-16T08:57:34.724Z,99.90
2018-08-16T09:00:03.146Z,99.90
2018-08-16T09:02:31.509Z,99.90
2018-08-16T09:04:59.890Z,99.90
2018-08-16T09:07:28.241Z,99.90
2018-08-16T09:11:12.930Z,99.90
2018-08-16T09:13:54.082Z,99.90
2018-08-16T09:16:25.132Z,99.90
2018-08-16T09:18:53.584Z,99.90
2018-08-16T09:21:21.935Z,99.90
2018-08-16T09:23:50.357Z,99.90
2018-08-16T09:26:24.081Z,99.90
2018-08-16T09:28:52.438Z,99.90
2018-08-16T09:31:32.301Z,99.90
2018-08-16T09:34:21.450Z,99.90
2018-08-16T09:36:49.874Z,99.90
2018-08-16T09:39:18.290Z,99.90
2018-08-16T09:41:46.656Z,99.90
2018-08-16T09:44:14.977Z,99.90
2018-08-16T09:46:56.052Z,99.90
2018-08-16T09:49:24.413Z,99.90
2018-08-16T09:51:53.021Z,99.90
2018-08-16T09:54:21.395Z,99.90
2018-08-16T09:56:50.079Z,99.90
2018-08-16T09:59:18.654Z,99.90
2018-08-16T10:01:47.012Z,99.90
2018-08-16T10:04:15.387Z,99.90
2018-08-16T10:06:44.297Z,99.90
2018-08-16T10:09:17.390Z,99.90
2018-08-16T10:11:46.174Z,99.90
2018-08-16T10:14:14.712Z,99.90
2018-08-16T10:16:43.123Z,99.90
2018-08-16T10:19:18.128Z,99.90
2018-08-16T10:21:46.449Z,99.90
2018-08-16T10:24:14.802Z,99.90
2018-08-16T10:26:43.316Z,99.90
2018-08-16T10:29:12.100Z,99.90
2018-08-16T10:31:40.594Z,99.90
2018-08-16T10:34:09.023Z,99.90
2018-08-16T10:36:37.415Z,99.90
2018-08-16T10:39:15.864Z,99.90
2018-08-16T10:41:44.267Z,99.90
2018-08-16T10:44:13.317Z,99.90
2018-08-16T10:46:41.715Z,99.90
2018-08-16T10:49:10.044Z,99.90
2018-08-16T10:51:38.374Z,99.90
2018-08-16T10:54:06.813Z,99.90
2018-08-16T10:56:35.185Z,99.90
2018-08-16T10:59:03.570Z,99.90
2018-08-16T11:01:31.942Z,99.90
2018-08-16T11:04:00.271Z,99.90
2018-08-16T11:06:28.614Z,99.90
2018-08-16T11:08:56.976Z,99.90
2018-08-16T11:11:25.309Z,99.90
2018-08-16T11:13:53.663Z,98.90
2018-08-16T11:16:22.007Z,96.30
2018-08-16T11:18:50.444Z,93.00
2018-08-16T11:21:18.799Z,91.40
2018-08-16T11:23:47.141Z,87.90
2018-08-16T11:26:15.561Z,88.70
2018-08-16T11:28:43.921Z,83.20
2018-08-16T11:31:12.277Z,79.20
2018-08-16T11:33:40.613Z,70.20
2018-08-16T11:36:08.957Z,72.00
2018-08-16T11:38:37.368Z,67.80
2018-08-16T11:41:05.801Z,68.20
2018-08-16T11:43:34.185Z,65.70
2018-08-16T11:46:02.580Z,65.40
2018-08-16T11:48:31.176Z,66.00
2018-08-16T11:50:59.594Z,62.20
2018-08-16T11:53:27.942Z,64.80
2018-08-16T11:55:56.282Z,65.00
2018-08-16T11:58:24.630Z,63.90
2018-08-16T12:00:53.006Z,61.20
2018-08-16T12:03:21.399Z,60.70
2018-08-16T12:05:49.741Z,59.70
2018-08-16T12:08:18.084Z,58.40
2018-08-16T12:10:46.402Z,56.30
2018-08-16T12:13:14.738Z,55.90
2018-08-16T12:15:43.095Z,59.70
2018-08-16T12:18:11.482Z,55.40
2018-08-16T12:20:39.814Z,55.40
2018-08-16T12:23:08.195Z,51.60
2018-08-16T12:25:36.546Z,54.50
2018-08-16T12:28:04.893Z,53.90
2018-08-16T12:30:33.245Z,52.60
2018-08-16T12:33:01.588Z,54.20
2018-08-16T12:35:29.903Z,55.50
2018-08-16T12:37:58.364Z,52.70
2018-08-16T12:40:26.789Z,52.40
2018-08-16T12:42:55.113Z,54.20
2018-08-16T12:45:23.624Z,54.90
2018-08-16T12:47:51.987Z,54.20
2018-08-16T12:50:20.360Z,53.30
2018-08-16T12:52:48.678Z,52.20
2018-08-16T12:55:17.038Z,52.90
2018-08-16T12:57:45.372Z,52.20
2018-08-16T13:00:16.362Z,54.40
2018-08-16T13:02:45.366Z,53.50
2018-08-16T13:05:13.738Z,52.90
2018-08-16T13:07:42.099Z,52.90
2018-08-16T13:10:11.143Z,53.20
2018-08-16T13:12:39.490Z,54.30
2018-08-16T13:15:08.705Z,54.80
2018-08-16T13:17:37.374Z,56.80
2018-08-16T13:20:06.018Z,55.00
2018-08-16T13:22:34.342Z,57.00
2018-08-16T13:25:02.683Z,55.30
2018-08-16T13:27:31.024Z,56.20
2018-08-16T13:29:59.487Z,51.20
2018-08-16T13:32:27.766Z,54.10
2018-08-16T13:34:56.109Z,55.10
2018-08-16T13:37:24.483Z,55.00
2018-08-16T13:39:52.821Z,57.50
2018-08-16T13:42:21.172Z,54.50
2018-08-16T13:44:49.517Z,54.60
2018-08-16T13:47:17.831Z,56.00
2018-08-16T13:49:46.417Z,57.20
2018-08-16T13:52:14.724Z,56.00
2018-08-16T13:54:43.074Z,57.80
2018-08-16T13:57:11.409Z,56.70
2018-08-16T13:59:39.790Z,57.40
2018-08-16T14:02:08.287Z,59.30
2018-08-16T14:04:36.617Z,59.60
2018-08-16T14:07:05.282Z,62.30
2018-08-16T14:09:33.614Z,62.90
2018-08-16T14:12:01.942Z,64.70
2018-08-16T14:14:30.298Z,63.70
2018-08-16T14:16:58.615Z,63.50
2018-08-16T14:19:26.964Z,65.10
2018-08-16T14:21:55.282Z,66.90
2018-08-16T14:24:23.652Z,67.60
2018-08-16T14:26:51.995Z,65.30
2018-08-16T14:29:20.343Z,67.70
2018-08-16T14:31:48.675Z,67.10
2018-08-16T14:34:16.993Z,70.00
2018-08-16T14:36:45.374Z,70.90
2018-08-16T14:39:13.706Z,67.60
2018-08-16T14:41:42.466Z,70.60
2018-08-16T14:44:10.799Z,65.50
2018-08-16T14:46:39.259Z,68.50
2018-08-16T14:49:07.588Z,65.60
2018-08-16T14:51:36.015Z,66.90
2018-08-16T14:54:04.382Z,70.40
2018-08-16T14:56:32.734Z,70.30
2018-08-16T14:59:01.049Z,70.00
2018-08-16T15:01:29.398Z,72.60
2018-08-16T15:03:57.759Z,73.40
2018-08-16T15:06:26.121Z,73.80
2018-08-16T15:08:54.455Z,73.70
2018-08-16T15:11:23.017Z,70.40
2018-08-16T15:13:51.337Z,69.40
2018-08-16T15:16:19.664Z,74.70
2018-08-16T15:18:47.982Z,74.00
2018-08-16T15:21:16.380Z,75.50
2018-08-16T15:23:44.769Z,72.90
2018-08-16T15:26:13.220Z,74.40
2018-08-16T15:28:41.529Z,75.40
2018-08-16T15:31:09.993Z,74.50
2018-08-16T15:33:38.383Z,72.40
2018-08-16T15:36:06.786Z,73.00
2018-08-16T15:38:35.141Z,73.80
2018-08-16T15:41:04.269Z,75.60
2018-08-16T15:43:32.623Z,78.50
2018-08-16T15:46:01.902Z,75.90
2018-08-16T15:48:33.247Z,73.90
2018-08-16T15:51:02.414Z,75.70
2018-08-16T15:53:30.732Z,73.00
2018-08-16T15:55:59.150Z,73.20
2018-08-16T15:58:30.573Z,78.50
2018-08-16T16:00:59.106Z,73.30
2018-08-16T16:03:27.562Z,70.60
2018-08-16T16:06:01.069Z,71.60
2018-08-16T16:08:30.715Z,73.00
2018-08-16T16:11:00.416Z,75.80
2018-08-16T16:13:30.135Z,74.40
2018-08-16T16:16:00.136Z,75.30
2018-08-16T16:18:28.509Z,75.80
2018-08-16T16:20:56.881Z,74.10
2018-08-16T16:23:25.311Z,74.00
2018-08-16T16:25:53.639Z,73.90
2018-08-16T16:28:22.019Z,75.40
2018-08-16T16:30:50.409Z,74.70
2018-08-16T16:33:19.053Z,77.20
2018-08-16T16:35:47.721Z,80.30
2018-08-16T16:38:16.153Z,75.60
2018-08-16T16:40:44.507Z,75.90
2018-08-16T16:43:12.885Z,78.50
2018-08-16T16:45:41.250Z,80.10
2018-08-16T16:48:09.649Z,82.00
2018-08-16T16:50:37.963Z,85.10
2018-08-16T16:53:06.467Z,85.00
2018-08-16T16:55:34.747Z,84.60
2018-08-16T16:58:03.110Z,84.00
2018-08-16T17:00:31.438Z,82.30
2018-08-16T17:02:59.837Z,84.90
2018-08-16T17:05:28.159Z,87.90
2018-08-16T17:07:56.525Z,89.20
2018-08-16T17:10:24.872Z,88.00
2018-08-16T17:12:53.225Z,84.60
2018-08-16T17:15:21.555Z,87.40
2018-08-16T17:17:49.910Z,84.10
2018-08-16T17:20:18.246Z,90.10
2018-08-16T17:22:46.589Z,90.30
2018-08-16T17:25:14.924Z,90.10
2018-08-16T17:27:43.265Z,92.30
2018-08-16T17:30:11.595Z,92.60
2018-08-16T17:32:39.931Z,91.00
2018-08-16T17:35:08.234Z,90.70
2018-08-16T17:37:36.642Z,91.80
2018-08-16T17:40:05.330Z,94.30
2018-08-16T17:42:33.694Z,93.10
2018-08-16T17:45:02.034Z,94.60
2018-08-16T17:47:30.375Z,96.40
2018-08-16T17:49:58.699Z,94.50
2018-08-16T17:52:27.082Z,94.80
2018-08-16T17:54:55.409Z,96.50
2018-08-16T17:57:23.790Z,97.30
2018-08-16T17:59:52.111Z,97.20
2018-08-16T18:02:20.463Z,99.90
2018-08-16T18:04:48.789Z,98.60
2018-08-16T18:07:17.125Z,99.40
2018-08-16T18:09:45.591Z,99.90
2018-08-16T18:12:13.958Z,99.90
2018-08-16T18:14:42.349Z,99.90
2018-08-16T18:17:10.691Z,99.90
2018-08-16T18:19:39.025Z,99.90
2018-08-16T18:22:07.685Z,99.90
2018-08-16T18:24:36.032Z,99.90
2018-08-16T18:27:04.408Z,99.90
2018-08-16T18:29:32.830Z,99.90
2018-08-16T18:32:01.175Z,99.90
2018-08-16T18:34:29.513Z,99.90
2018-08-16T18:36:58.029Z,99.90
2018-08-16T18:39:26.286Z,99.90
2018-08-16T18:41:54.662Z,99.90
2018-08-16T18:44:23.031Z,99.90
2018-08-16T18:46:51.365Z,99.90
2018-08-16T18:49:20.633Z,99.90
2018-08-16T18:51:48.948Z,99.90
2018-08-16T18:54:17.284Z,99.90
2018-08-16T18:56:45.907Z,99.90
2018-08-16T18:59:14.295Z,99.90
2018-08-16T19:01:42.618Z,99.90
2018-08-16T19:04:11.030Z,99.90
2018-08-16T19:06:39.412Z,99.90
2018-08-16T19:09:08.003Z,99.90
2018-08-16T19:11:36.357Z,99.90
2018-08-16T19:14:05.171Z,99.90
2018-08-16T19:16:33.542Z,99.90
2018-08-16T19:19:01.902Z,99.90
2018-08-16T19:21:31.217Z,99.90
2018-08-16T19:23:59.589Z,99.90
2018-08-16T19:26:27.909Z,99.90
2018-08-16T19:28:56.298Z,99.90
2018-08-16T19:31:24.654Z,99.90
2018-08-16T19:33:53.039Z,99.90
2018-08-16T19:36:21.360Z,99.90
2018-08-16T19:38:49.715Z,99.90
2018-08-16T19:41:18.157Z,99.90
2018-08-16T19:43:46.450Z,99.90
2018-08-16T19:46:14.785Z,99.90
2018-08-16T19:48:43.109Z,99.90
2018-08-16T19:51:11.517Z,99.90
2018-08-16T19:53:39.866Z,99.90
2018-08-16T19:56:08.223Z,99.90
2018-08-16T19:58:37.279Z,99.90
2018-08-16T20:01:05.947Z,99.90
2018-08-16T20:03:34.315Z,99.90
2018-08-16T20:06:02.659Z,99.90
2018-08-16T20:08:31.036Z,99.90
2018-08-16T20:10:59.497Z,99.90
2018-08-16T20:13:27.794Z,99.90
2018-08-16T20:15:56.623Z,99.90
2018-08-16T20:18:24.939Z,99.90
2018-08-16T20:20:53.267Z,99.90
2018-08-16T20:23:21.590Z,99.90
2018-08-16T20:25:49.950Z,99.90
2018-08-16T20:28:18.312Z,99.90
2018-08-16T20:30:46.658Z,99.90
2018-08-16T20:33:15.098Z,99.90
2018-08-16T20:35:43.443Z,99.90
2018-08-16T20:38:11.780Z,99.90
2018-08-16T20:40:40.195Z,99.90
2018-08-16T20:43:08.546Z,99.90
2018-08-16T20:45:36.919Z,99.90
2018-08-16T20:48:05.272Z,99.90
2018-08-16T20:50:33.598Z,99.90
2018-08-16T20:53:01.977Z,99.90
2018-08-16T20:55:30.403Z,99.90
2018-08-16T20:57:58.742Z,99.90
2018-08-16T21:00:27.125Z,99.90
2018-08-16T21:02:55.436Z,99.90
2018-08-16T21:05:23.873Z,99.90
2018-08-16T21:07:52.191Z,99.90
2018-08-16T21:10:20.585Z,99.90
2018-08-16T21:12:48.902Z,99.90
2018-08-16T21:15:17.342Z,99.90
2018-08-16T21:17:45.998Z,99.90
2018-08-16T21:20:14.433Z,99.90
2018-08-16T21:22:42.931Z,99.90
2018-08-16T21:25:11.269Z,99.90
2018-08-16T21:27:39.584Z,99.90
2018-08-16T21:30:07.924Z,99.90
2018-08-16T21:32:36.393Z,99.90
2018-08-16T21:35:04.863Z,99.90
2018-08-16T21:37:33.202Z,99.90
2018-08-16T21:40:01.512Z,99.90
2018-08-16T21:42:29.869Z,99.90
2018-08-16T21:44:58.229Z,99.90
2018-08-16T21:47:26.576Z,99.90
2018-08-16T21:49:54.962Z,99.90
2018-08-16T21:52:23.332Z,99.90
2018-08-16T21:54:51.674Z,99.90
2018-08-16T21:57:20.020Z,99.90
2018-08-16T21:59:48.327Z,99.90
2018-08-16T22:02:16.668Z,99.90
2018-08-16T22:04:44.988Z,99.90
2018-08-16T22:07:24.225Z,99.90
2018-08-16T22:09:52.546Z,99.90
2018-08-16T22:12:20.874Z,99.90
2018-08-16T22:14:49.230Z,99.90
2018-08-16T22:17:17.568Z,99.90
2018-08-16T22:19:45.887Z,99.90
2018-08-16T22:22:14.225Z,99.90
2018-08-16T22:24:42.674Z,99.90
2018-08-16T22:27:11.058Z,99.90
2018-08-16T22:29:39.377Z,99.90
2018-08-16T22:32:07.790Z,99.90
2018-08-16T22:34:36.126Z,99.90
2018-08-16T22:37:04.471Z,99.90
2018-08-16T22:39:32.785Z,99.90
2018-08-16T22:42:01.181Z,99.90
2018-08-16T22:44:29.543Z,99.90
2018-08-16T22:46:57.853Z,99.90
2018-08-16T22:49:26.182Z,99.90
2018-08-16T22:51:54.555Z,99.90
2018-08-16T22:54:22.876Z,99.90
2018-08-16T22:56:51.225Z,99.90
2018-08-16T22:59:19.528Z,99.90
2018-08-16T23:01:47.886Z,99.90
2018-08-16T23:04:16.219Z,99.90
2018-08-16T23:06:44.721Z,99.90
2018-08-16T23:09:13.081Z,99.90
2018-08-16T23:11:41.416Z,99.90
2018-08-16T23:14:09.729Z,99.90
2018-08-16T23:16:38.061Z,99.90
2018-08-16T23:19:06.420Z,99.90
2018-08-16T23:21:34.737Z,99.90
2018-08-16T23:24:03.131Z,99.90
2018-08-16T23:26:31.581Z,99.90
2018-08-16T23:28:59.950Z,99.90
2018-08-16T23:31:28.274Z,99.90
2018-08-16T23:33:56.681Z,99.90
2018-08-16T23:36:24.993Z,99.90
2018-08-16T23:38:53.342Z,99.90
2018-08-16T23:41:21.697Z,99.90
2018-08-16T23:43:50.051Z,99.90
2018-08-16T23:46:18.455Z,99.90
2018-08-16T23:48:46.805Z,99.90
2018-08-16T23:51:15.132Z,99.90
2018-08-16T23:53:43.483Z,99.90
2018-08-16T23:56:11.800Z,99.90
2018-08-16T23:58:40.141Z,99.90
